Time;durP1;ratioP1;P1;durP2;ratioP2;P2;SDS_P1;SDS_P2;PMS_P1;PMS_P2;Temp;Humidity;BMP_temperature;BMP_pressure;BME280_temperature;BME280_humidity;BME280_pressure;Samples;Min_cycle;Max_cycle;Signal;HPM_P1;HPM_P2
2024/02/05 00:00:30;;;;;;;9.90;3.90;;;;;;;10.12;50.61;98211.14;107962;1253;71478;-66
2024/02/05 00:02:57;;;;;;;10.10;4.30;;;;;;;10.10;50.82;98207.21;108003;1256;60886;-65
2024/02/05 00:05:25;;;;;;;11.20;4.10;;;;;;;10.26;50.65;98212.48;108003;1253;63127;-66
2024/02/05 00:07:53;;;;;;;12.40;3.80;;;;;;;10.40;50.30;98208.78;107955;1260;72662;-66
2024/02/05 00:10:25;;;;;;;8.40;4.00;;;;;;;10.14;51.18;98205.39;107870;1253;70316;-66
2024/02/05 00:12:53;;;;;;;9.50;3.70;;;;;;;10.28;50.95;98202.41;107948;1254;71805;-67
2024/02/05 00:15:20;;;;;;;9.80;4.40;;;;;;;10.38;50.76;98198.39;107989;1253;60480;-67
2024/02/05 00:17:48;;;;;;;12.00;4.70;;;;;;;10.42;50.88;98197.83;107992;1253;60546;-67
2024/02/05 00:20:16;;;;;;;9.10;3.90;;;;;;;10.38;51.01;98195.27;107982;1254;72597;-67
2024/02/05 00:22:43;;;;;;;9.50;4.20;;;;;;;10.38;51.06;98182.14;107990;1253;69198;-66
2024/02/05 00:25:11;;;;;;;10.90;4.10;;;;;;;10.18;51.72;98173.92;108000;1254;71426;-66
2024/02/05 00:27:39;;;;;;;7.00;3.70;;;;;;;10.30;51.39;98169.64;107801;1253;60920;-65
2024/02/05 00:30:08;;;;;;;8.30;4.10;;;;;;;10.33;51.51;98166.99;107756;1253;60537;-67
2024/02/05 00:32:37;;;;;;;8.70;4.30;;;;;;;10.40;51.36;98160.94;107960;1254;72934;-66
2024/02/05 00:35:07;;;;;;;8.50;3.90;;;;;;;10.32;51.66;98162.81;108010;1254;68926;-67
2024/02/05 00:37:35;;;;;;;8.80;4.60;;;;;;;10.22;51.92;98159.60;108034;1254;71675;-64
2024/02/05 00:40:05;;;;;;;9.30;4.10;;;;;;;10.16;52.12;98159.83;108064;1254;61012;-67
2024/02/05 00:42:33;;;;;;;7.80;4.50;;;;;;;10.16;52.31;98151.62;108036;1253;60805;-66
2024/02/05 00:45:01;;;;;;;8.80;4.20;;;;;;;9.99;53.13;98136.83;108006;1257;72687;-66
2024/02/05 00:47:29;;;;;;;8.60;3.70;;;;;;;10.27;52.57;98136.35;107947;1254;70071;-65
2024/02/05 00:49:57;;;;;;;10.60;4.90;;;;;;;10.04;53.54;98135.08;108078;1254;72697;-67
2024/02/05 00:52:25;;;;;;;10.90;4.60;;;;;;;10.34;52.88;98135.19;108063;1254;60588;-66
2024/02/05 00:54:53;;;;;;;10.90;5.00;;;;;;;10.18;53.57;98127.61;108095;1253;59010;-66
2024/02/05 00:57:21;;;;;;;10.20;4.40;;;;;;;10.18;53.92;98123.22;108048;1254;73829;-66
2024/02/05 00:59:48;;;;;;;10.00;5.20;;;;;;;10.14;54.25;98117.15;108059;1254;70389;-67
2024/02/05 01:02:16;;;;;;;8.30;4.50;;;;;;;10.15;54.48;98115.40;108056;1254;71453;-67
2024/02/05 01:04:43;;;;;;;10.40;4.40;;;;;;;10.06;54.76;98111.95;108094;1254;60845;-67
2024/02/05 01:07:11;;;;;;;12.50;5.10;;;;;;;9.95;55.36;98101.81;108097;1254;60187;-66
2024/02/05 01:09:39;;;;;;;11.70;5.50;;;;;;;9.83;56.04;98107.17;108067;1256;76197;-66
2024/02/05 01:12:07;;;;;;;16.50;5.60;;;;;;;9.79;56.25;98089.70;108220;1253;69937;-66
2024/02/05 01:14:35;;;;;;;12.80;5.10;;;;;;;10.01;55.91;98091.39;108126;1254;71671;-67
2024/02/05 01:17:03;;;;;;;17.60;5.90;;;;;;;10.04;55.93;98091.77;108052;1256;60290;-67
2024/02/05 01:19:31;;;;;;;13.50;5.40;;;;;;;10.15;55.74;98084.20;108164;1253;59078;-64
2024/02/05 01:21:58;;;;;;;10.40;4.90;;;;;;;10.19;55.58;98077.73;108151;1254;72586;-67
2024/02/05 01:24:26;;;;;;;11.70;5.20;;;;;;;10.28;55.24;98074.90;108155;1253;71024;-66
2024/02/05 01:26:53;;;;;;;13.70;5.60;;;;;;;10.27;55.36;98072.13;108197;1257;72279;-67
2024/02/05 01:29:21;;;;;;;12.20;5.60;;;;;;;10.28;55.39;98065.41;107941;1257;60447;-66
2024/02/05 01:31:49;;;;;;;9.20;4.40;;;;;;;10.29;55.29;98067.65;108036;1253;60373;-67
2024/02/05 01:34:17;;;;;;;13.70;5.50;;;;;;;10.25;55.40;98067.35;107985;1254;72757;-67
2024/02/05 01:36:44;;;;;;;11.80;4.90;;;;;;;10.41;55.04;98065.06;107939;1253;68346;-66
2024/02/05 01:39:12;;;;;;;10.60;5.60;;;;;;;10.25;55.39;98068.05;107813;1254;72689;-66
2024/02/05 01:41:40;;;;;;;14.20;4.90;;;;;;;10.37;55.17;98063.27;108146;1253;60501;-67
2024/02/05 01:44:07;;;;;;;12.30;5.50;;;;;;;10.57;54.56;98066.92;107949;1254;60294;-67
2024/02/05 01:46:36;;;;;;;11.50;5.40;;;;;;;10.56;54.54;98063.84;107986;1253;72531;-65
2024/02/05 01:49:05;;;;;;;12.60;5.20;;;;;;;10.71;54.14;98055.44;107926;1253;70189;-66
2024/02/05 01:51:37;;;;;;;14.90;5.60;;;;;;;10.85;53.54;98051.11;107957;1253;72754;-67
2024/02/05 01:54:05;;;;;;;11.60;5.30;;;;;;;10.96;53.33;98050.65;107804;1259;129503;-65
2024/02/05 01:57:40;;;;;;;9.70;5.30;;;;;;;8.27;60.35;98054.99;104933;1290;600946;-66
2024/02/05 02:00:10;;;;;;;10.50;5.20;;;;;;;9.16;58.05;98041.13;107271;1264;59565;-67
2024/02/05 02:02:40;;;;;;;13.60;5.60;;;;;;;9.32;57.52;98033.92;107305;1264;60049;-66
2024/02/05 02:05:07;;;;;;;12.30;5.00;;;;;;;9.52;57.00;98040.91;107275;1269;72210;-65
2024/02/05 02:07:35;;;;;;;12.10;5.50;;;;;;;9.87;55.99;98035.05;107385;1261;70538;-66
2024/02/05 02:10:04;;;;;;;9.00;4.50;;;;;;;9.83;56.00;98032.33;107416;1261;72142;-66
2024/02/05 02:12:31;;;;;;;16.40;5.70;;;;;;;9.98;55.45;98026.61;107555;1260;162094;-67
2024/02/05 02:14:59;;;;;;;17.60;5.60;;;;;;;10.18;54.84;98022.77;107731;1259;59170;-65
2024/02/05 02:17:28;;;;;;;14.50;5.00;;;;;;;10.15;54.70;98016.85;107593;1259;69858;-66
2024/02/05 02:19:56;;;;;;;11.00;4.50;;;;;;;10.15;54.22;98014.90;108248;1251;69113;-66
2024/02/05 02:22:39;;;;;;;9.60;4.50;;;;;;;10.13;54.20;98011.75;108156;1251;72740;-66
2024/02/05 02:25:07;;;;;;;9.80;4.50;;;;;;;10.27;53.69;97995.82;108231;1251;59545;-65
2024/02/05 02:27:34;;;;;;;11.90;5.00;;;;;;;10.51;53.03;97997.67;108316;1251;59487;-66
2024/02/05 02:30:03;;;;;;;8.40;4.50;;;;;;;10.47;52.93;97996.08;108252;1256;72185;-66
2024/02/05 02:32:52;;;;;;;13.30;4.80;;;;;;;10.56;52.80;98001.55;108239;1256;70131;-66
2024/02/05 02:35:42;;;;;;;13.30;5.00;;;;;;;10.72;52.18;98000.77;108233;1251;73095;-67
2024/02/05 02:38:18;;;;;;;13.20;4.70;;;;;;;10.78;52.06;98009.48;108109;1254;59643;-66
2024/02/05 02:40:49;;;;;;;10.40;3.80;;;;;;;10.71;52.18;98009.27;108136;1255;59480;-66
2024/02/05 02:43:16;;;;;;;9.40;4.10;;;;;;;10.73;52.00;98001.44;108090;1254;71831;-66
2024/02/05 02:45:45;;;;;;;10.40;4.10;;;;;;;10.63;52.10;97993.88;107953;1254;70190;-67
2024/02/05 02:48:12;;;;;;;10.60;4.70;;;;;;;10.40;52.59;97999.17;108060;1255;72668;-66
2024/02/05 02:50:40;;;;;;;9.30;4.20;;;;;;;10.59;52.52;97992.05;108077;1258;62405;-67
2024/02/05 02:53:07;;;;;;;11.30;5.00;;;;;;;10.66;52.54;97985.39;108129;1258;60125;-65
2024/02/05 02:55:35;;;;;;;11.40;4.20;;;;;;;10.70;52.46;97982.18;107950;1254;72792;-65
2024/02/05 02:58:03;;;;;;;8.20;3.60;;;;;;;10.69;52.52;97975.39;108211;1254;68207;-66
2024/02/05 03:00:30;;;;;;;9.80;3.70;;;;;;;10.76;52.31;97982.75;108206;1254;72187;-67
2024/02/05 03:02:58;;;;;;;14.00;4.90;;;;;;;10.79;52.49;97981.48;108252;1254;60931;-68
2024/02/05 03:05:26;;;;;;;9.40;4.40;;;;;;;10.54;53.13;97972.95;108093;1254;59517;-66
2024/02/05 03:07:53;;;;;;;11.10;4.50;;;;;;;10.54;53.00;97976.09;108204;1254;72842;-67
2024/02/05 03:10:21;;;;;;;15.90;4.40;;;;;;;10.49;53.31;97989.61;108068;1255;70456;-67
2024/02/05 03:12:48;;;;;;;14.80;5.30;;;;;;;10.41;53.37;97986.14;108040;1254;71133;-66
2024/02/05 03:15:16;;;;;;;13.30;3.70;;;;;;;10.39;53.25;97983.41;108034;1254;60919;-66
2024/02/05 03:17:43;;;;;;;8.00;3.20;;;;;;;10.07;53.89;97969.16;108097;1255;59949;-66
2024/02/05 03:20:30;;;;;;;10.50;2.40;;;;;;;10.19;53.58;97974.31;108060;1253;71976;-66
2024/02/05 03:22:58;;;;;;;5.00;2.30;;;;;;;10.47;52.49;97980.44;108054;1254;69299;-67
2024/02/05 03:25:36;;;;;;;7.60;2.20;;;;;;;10.41;52.40;97987.56;108042;1257;71400;-66
2024/02/05 03:28:04;;;;;;;3.60;1.80;;;;;;;10.38;52.01;97972.78;108111;1254;61192;-66
2024/02/05 03:30:32;;;;;;;4.40;1.80;;;;;;;10.50;51.68;97975.17;108109;1254;60055;-66
2024/02/05 03:33:01;;;;;;;1.90;1.50;;;;;;;10.53;51.55;97973.69;108073;1252;73248;-64
2024/02/05 03:35:29;;;;;;;2.80;1.30;;;;;;;10.54;51.52;97973.79;108166;1255;70071;-67
2024/02/05 03:37:57;;;;;;;3.60;1.50;;;;;;;10.55;51.58;97990.42;108109;1254;72737;-66
2024/02/05 03:40:24;;;;;;;1.70;1.20;;;;;;;10.43;52.00;97991.41;108145;1257;59883;-65
2024/02/05 03:42:53;;;;;;;3.30;1.60;;;;;;;10.22;52.55;97992.30;108228;1254;59361;-65
2024/02/05 03:45:20;;;;;;;3.50;1.50;;;;;;;10.10;53.06;97996.84;108129;1258;72038;-67
2024/02/05 03:47:47;;;;;;;2.40;1.40;;;;;;;10.16;52.84;98002.37;108143;1257;68937;-66
2024/02/05 03:50:17;;;;;;;4.00;1.70;;;;;;;10.21;52.97;98006.42;108038;1254;72758;-66
2024/02/05 03:52:47;;;;;;;2.10;1.40;;;;;;;10.25;52.79;98010.37;108062;1259;59645;-67
2024/02/05 03:55:15;;;;;;;3.50;1.40;;;;;;;10.14;52.92;98010.06;108083;1254;60178;-68
2024/02/05 03:57:56;;;;;;;2.60;1.50;;;;;;;9.93;53.45;97996.23;108055;1259;71920;-67
2024/02/05 04:00:24;;;;;;;2.40;1.50;;;;;;;10.04;53.08;98005.11;108051;1257;69247;-66
2024/02/05 04:02:52;;;;;;;2.10;1.40;;;;;;;10.07;52.92;98006.72;108083;1255;71697;-66
2024/02/05 04:05:19;;;;;;;2.50;1.60;;;;;;;9.87;53.48;98007.02;108155;1255;61096;-66
2024/02/05 04:07:47;;;;;;;2.00;1.30;;;;;;;9.62;54.07;97997.98;108042;1253;59655;-66
2024/02/05 04:10:14;;;;;;;2.50;1.10;;;;;;;9.65;54.38;98006.41;108103;1258;73087;-67
2024/02/05 04:12:42;;;;;;;2.00;1.20;;;;;;;9.91;53.74;98001.64;108099;1254;68694;-67
2024/02/05 04:15:09;;;;;;;3.60;0.90;;;;;;;9.56;54.58;98002.98;108093;1259;72743;-67
2024/02/05 04:17:38;;;;;;;1.90;1.20;;;;;;;9.69;54.22;97981.40;108066;1254;60861;-67
2024/02/05 04:20:06;;;;;;;1.60;1.10;;;;;;;9.74;53.83;97991.63;108056;1258;59502;-67
2024/02/05 04:22:34;;;;;;;2.40;1.00;;;;;;;9.68;53.81;97988.31;108165;1259;71936;-66
2024/02/05 04:25:01;;;;;;;2.20;0.80;;;;;;;9.35;54.50;97986.14;108177;1254;69911;-67
2024/02/05 04:27:29;;;;;;;2.10;1.00;;;;;;;9.43;54.11;97984.58;108097;1257;72712;-67
2024/02/05 04:29:56;;;;;;;1.30;0.90;;;;;;;9.40;54.19;97983.50;108072;1260;60887;-66
2024/02/05 04:32:24;;;;;;;1.70;1.00;;;;;;;9.37;54.28;97977.42;108102;1253;59400;-66
2024/02/05 04:34:51;;;;;;;1.70;1.10;;;;;;;9.20;54.70;97964.90;108135;1257;71825;-67
2024/02/05 04:37:20;;;;;;;1.70;1.00;;;;;;;9.33;54.41;97956.54;108056;1254;70661;-66
2024/02/05 04:39:48;;;;;;;0.90;0.90;;;;;;;9.36;54.22;97953.34;108098;1254;72927;-67
2024/02/05 04:42:16;;;;;;;1.70;1.40;;;;;;;9.35;54.10;97968.80;108074;1256;59571;-66
2024/02/05 04:44:43;;;;;;;1.90;1.00;;;;;;;9.27;54.24;97975.59;108102;1254;60139;-67
2024/02/05 04:47:11;;;;;;;1.70;1.00;;;;;;;9.29;53.96;97978.98;108067;1254;71881;-66
2024/02/05 04:49:38;;;;;;;1.50;1.20;;;;;;;9.26;53.99;97986.75;108136;1255;70306;-66
2024/02/05 04:52:10;;;;;;;3.00;1.20;;;;;;;9.05;54.51;97986.89;107999;1254;72545;-67
2024/02/05 04:54:37;;;;;;;2.70;1.30;;;;;;;9.17;54.17;97982.95;108077;1254;60860;-67
2024/02/05 04:57:05;;;;;;;2.40;1.20;;;;;;;9.03;54.44;97986.30;108048;1254;59251;-67
2024/02/05 04:59:33;;;;;;;5.80;1.10;;;;;;;9.16;54.14;97979.70;108101;1254;72985;-66
2024/02/05 05:02:00;;;;;;;3.20;1.60;;;;;;;9.05;54.48;97979.00;108145;1254;69028;-67
2024/02/05 05:04:29;;;;;;;1.90;1.40;;;;;;;9.29;53.99;97982.17;108064;1254;71395;-66
2024/02/05 05:06:57;;;;;;;2.90;1.40;;;;;;;9.40;53.65;97974.02;108213;1255;60151;-66
2024/02/05 05:09:25;;;;;;;3.30;1.60;;;;;;;9.36;53.57;97975.05;108122;1254;59907;-68
2024/02/05 05:11:52;;;;;;;2.40;1.50;;;;;;;9.37;53.61;97971.30;108122;1255;73043;-66
2024/02/05 05:14:20;;;;;;;2.50;1.40;;;;;;;9.39;53.53;97969.08;108068;1257;69982;-66
2024/02/05 05:16:47;;;;;;;5.30;1.70;;;;;;;9.46;53.17;97971.40;108085;1257;72701;-65
2024/02/05 05:19:15;;;;;;;3.00;1.70;;;;;;;9.35;53.57;97972.13;108075;1254;61032;-66
2024/02/05 05:21:43;;;;;;;3.20;1.50;;;;;;;9.29;53.65;97970.24;108144;1257;59480;-66
2024/02/05 05:24:12;;;;;;;2.60;1.50;;;;;;;9.41;53.43;97956.86;108112;1259;73070;-66
2024/02/05 05:26:39;;;;;;;3.60;1.60;;;;;;;9.52;53.12;97958.38;108001;1257;70097;-66
2024/02/05 05:29:07;;;;;;;3.40;1.60;;;;;;;9.50;53.31;97966.08;108083;1254;71790;-67
2024/02/05 05:31:35;;;;;;;2.10;1.70;;;;;;;9.56;53.19;97967.60;108047;1258;59924;-68
2024/02/05 05:34:05;;;;;;;3.80;1.60;;;;;;;9.59;53.17;97966.36;108110;1255;59549;-66
2024/02/05 05:36:34;;;;;;;5.30;1.70;;;;;;;9.62;53.11;97966.13;108047;1259;71479;-67
2024/02/05 05:39:02;;;;;;;7.50;1.70;;;;;;;9.66;53.06;97960.57;108053;1254;70220;-66
2024/02/05 05:41:29;;;;;;;4.20;1.90;;;;;;;9.58;53.48;97965.31;108027;1257;71713;-66
2024/02/05 05:43:58;;;;;;;4.70;1.90;;;;;;;9.53;53.54;97964.44;108005;1254;60919;-67
2024/02/05 05:46:27;;;;;;;2.60;1.70;;;;;;;9.33;54.13;97967.89;108121;1254;60091;-67
2024/02/05 05:48:55;;;;;;;5.50;2.00;;;;;;;9.33;54.39;97961.25;108083;1255;73565;-66
2024/02/05 05:51:23;;;;;;;2.80;1.60;;;;;;;9.55;53.80;97964.12;108052;1259;68884;-68
2024/02/05 05:53:50;;;;;;;5.80;1.80;;;;;;;9.63;53.75;97962.22;108191;1253;72081;-66
2024/02/05 05:56:18;;;;;;;3.00;1.60;;;;;;;9.80;53.15;97949.95;108282;1255;59985;-67
2024/02/05 05:58:46;;;;;;;4.10;1.90;;;;;;;9.93;52.90;97955.75;108082;1253;59659;-67
2024/02/05 06:01:13;;;;;;;5.10;2.20;;;;;;;9.94;52.90;97945.56;108168;1254;71180;-67
2024/02/05 06:03:43;;;;;;;6.10;3.20;;;;;;;10.08;52.49;97936.66;107999;1253;69031;-65
2024/02/05 06:06:11;;;;;;;7.70;3.30;;;;;;;10.05;52.65;97937.58;108040;1254;72957;-68
2024/02/05 06:08:39;;;;;;;5.40;3.30;;;;;;;10.11;52.51;97940.30;108066;1258;60387;-67
2024/02/05 06:11:06;;;;;;;4.20;2.40;;;;;;;10.29;52.14;97935.23;108060;1258;60535;-67
2024/02/05 06:13:34;;;;;;;6.70;2.10;;;;;;;10.10;52.68;97937.41;108087;1254;72636;-67
2024/02/05 06:16:08;;;;;;;5.20;2.40;;;;;;;10.12;52.66;97935.86;108069;1254;70096;-67
2024/02/05 06:18:35;;;;;;;7.60;2.80;;;;;;;10.30;52.33;97933.91;108029;1254;72709;-66
2024/02/05 06:21:05;;;;;;;5.70;2.60;;;;;;;10.32;52.18;97926.92;107932;1257;60345;-66
2024/02/05 06:23:33;;;;;;;4.90;2.80;;;;;;;10.18;52.63;97919.29;108055;1253;60377;-66
2024/02/05 06:26:01;;;;;;;6.30;2.90;;;;;;;10.29;52.27;97907.32;107905;1255;73871;-66
2024/02/05 06:28:29;;;;;;;5.70;2.70;;;;;;;10.37;52.08;97905.87;108198;1255;69308;-66
2024/02/05 06:30:57;;;;;;;4.10;2.60;;;;;;;10.41;51.90;97910.34;108087;1254;72180;-67
2024/02/05 06:33:24;;;;;;;4.80;2.50;;;;;;;10.31;52.03;97917.38;108005;1253;61091;-66
2024/02/05 06:35:51;;;;;;;3.60;2.30;;;;;;;10.31;51.98;97929.48;108135;1254;60928;-66
2024/02/05 06:38:19;;;;;;;3.80;2.10;;;;;;;10.12;52.47;97931.66;108193;1255;73792;-66
2024/02/05 06:40:46;;;;;;;2.80;2.10;;;;;;;10.15;52.45;97932.52;108184;1253;68333;-66
2024/02/05 06:43:14;;;;;;;3.70;2.40;;;;;;;10.36;51.88;97928.98;108163;1253;72474;-67
2024/02/05 06:45:41;;;;;;;3.50;1.90;;;;;;;10.34;51.88;97930.85;108217;1254;60342;-66
2024/02/05 06:48:09;;;;;;;3.50;2.00;;;;;;;10.41;51.69;97926.49;108267;1254;60289;-67
2024/02/05 06:50:37;;;;;;;4.20;1.80;;;;;;;10.56;51.33;97922.09;108208;1254;72950;-66
2024/02/05 06:53:04;;;;;;;3.00;1.80;;;;;;;10.47;51.52;97920.42;108149;1254;70518;-66
2024/02/05 06:55:32;;;;;;;5.50;1.80;;;;;;;10.36;51.72;97909.79;108163;1253;71473;-67
2024/02/05 06:58:00;;;;;;;2.60;1.70;;;;;;;10.02;52.44;97905.21;108292;1254;62862;-67
2024/02/05 07:00:27;;;;;;;2.10;1.60;;;;;;;10.01;52.65;97896.14;108263;1253;60081;-66
2024/02/05 07:02:55;;;;;;;7.90;1.80;;;;;;;10.08;52.52;97891.30;108168;1253;74389;-67
2024/02/05 07:05:23;;;;;;;2.90;1.50;;;;;;;10.06;52.68;97891.59;108201;1255;69188;-67
2024/02/05 07:07:50;;;;;;;3.80;1.50;;;;;;;10.15;52.62;97879.19;108151;1253;71460;-67
2024/02/05 07:10:18;;;;;;;6.10;1.70;;;;;;;10.06;52.89;97882.10;108101;1253;60361;-67
2024/02/05 07:12:45;;;;;;;3.40;1.60;;;;;;;10.18;52.85;97884.23;108219;1254;60463;-66
2024/02/05 07:15:13;;;;;;;2.80;1.60;;;;;;;10.30;52.50;97879.92;108140;1254;73116;-67
2024/02/05 07:17:43;;;;;;;2.40;1.20;;;;;;;10.24;52.67;97885.39;108219;1253;72811;-67
2024/02/05 07:20:11;;;;;;;2.70;1.60;;;;;;;10.36;52.20;97890.03;108109;1254;72750;-67
2024/02/05 07:22:39;;;;;;;3.60;1.60;;;;;;;10.39;51.94;97891.89;108254;1254;60573;-65
2024/02/05 07:25:07;;;;;;;7.30;1.80;;;;;;;10.45;52.00;97888.62;108298;1254;60364;-67
2024/02/05 07:27:35;;;;;;;2.10;1.60;;;;;;;10.49;51.71;97890.98;108224;1253;72981;-65
2024/02/05 07:30:03;;;;;;;3.30;1.50;;;;;;;10.57;51.50;97887.98;108065;1254;68857;-67
2024/02/05 07:32:31;;;;;;;4.10;1.60;;;;;;;10.55;51.56;97885.10;108205;1254;72421;-66
2024/02/05 07:34:59;;;;;;;3.40;1.60;;;;;;;10.44;51.76;97877.86;108127;1253;60985;-66
2024/02/05 07:37:26;;;;;;;1.90;1.30;;;;;;;10.16;52.30;97871.61;108099;1252;61124;-66
2024/02/05 07:39:55;;;;;;;3.30;1.80;;;;;;;10.14;52.41;97873.70;108139;1254;73639;-67
2024/02/05 07:42:22;;;;;;;2.40;1.80;;;;;;;10.15;52.46;97876.40;108201;1254;70515;-67
2024/02/05 07:44:50;;;;;;;3.00;1.70;;;;;;;10.04;53.06;97880.66;108291;1254;71802;-66
2024/02/05 07:47:18;;;;;;;4.30;1.70;;;;;;;10.19;52.57;97884.66;108194;1254;61013;-67
2024/02/05 07:49:45;;;;;;;2.60;1.60;;;;;;;10.12;52.73;97884.50;108303;1253;60488;-67
2024/02/05 07:52:14;;;;;;;4.00;1.70;;;;;;;10.06;52.74;97880.89;108236;1253;73917;-67
2024/02/05 07:54:42;;;;;;;2.80;1.60;;;;;;;9.92;53.07;97876.44;108127;1257;68905;-67
2024/02/05 07:57:10;;;;;;;3.60;1.80;;;;;;;9.71;53.58;97872.25;108256;1254;71044;-67
2024/02/05 07:59:38;;;;;;;5.20;1.90;;;;;;;9.65;53.67;97870.95;108282;1252;60539;-67
2024/02/05 08:02:06;;;;;;;3.90;1.70;;;;;;;9.76;53.31;97864.55;108220;1253;59569;-67
2024/02/05 08:04:33;;;;;;;4.20;1.80;;;;;;;9.53;54.04;97861.60;108291;1254;76106;-67
2024/02/05 08:07:04;;;;;;;4.00;1.90;;;;;;;9.58;53.77;97857.97;108202;1254;69620;-67
2024/02/05 08:09:33;;;;;;;3.40;1.70;;;;;;;9.59;53.84;97853.30;108255;1256;74862;-67
2024/02/05 08:12:03;;;;;;;4.20;2.20;;;;;;;9.60;53.92;97849.19;108235;1253;62913;-67
2024/02/05 08:14:31;;;;;;;5.00;2.30;;;;;;;9.49;54.18;97838.80;108127;1254;60321;-67
2024/02/05 08:16:58;;;;;;;3.20;2.00;;;;;;;9.37;54.55;97841.71;108219;1254;72642;-67
2024/02/05 08:19:26;;;;;;;4.00;2.20;;;;;;;9.40;54.45;97833.95;108238;1253;70077;-67
2024/02/05 08:21:54;;;;;;;4.40;2.60;;;;;;;9.33;54.87;97846.33;108264;1254;70470;-67
2024/02/05 08:24:22;;;;;;;7.40;3.40;;;;;;;9.45;54.74;97853.09;108259;1254;61290;-67
2024/02/05 08:26:50;;;;;;;5.30;2.70;;;;;;;9.51;54.62;97851.98;108189;1253;60338;-66
2024/02/05 08:29:18;;;;;;;6.00;3.20;;;;;;;9.59;54.49;97855.29;108264;1254;73915;-66
2024/02/05 08:31:46;;;;;;;4.10;2.20;;;;;;;9.71;54.14;97862.66;108313;1253;72674;-68
2024/02/05 08:34:14;;;;;;;3.50;2.30;;;;;;;9.65;54.25;97860.23;108188;1253;72512;-67
2024/02/05 08:36:41;;;;;;;6.60;2.40;;;;;;;9.72;54.10;97864.66;108151;1252;61013;-66
2024/02/05 08:39:10;;;;;;;5.30;2.60;;;;;;;9.64;54.25;97856.52;108101;1254;60357;-66
2024/02/05 08:41:38;;;;;;;4.30;2.70;;;;;;;9.45;54.67;97859.02;108197;1253;73264;-66
2024/02/05 08:44:07;;;;;;;5.60;2.70;;;;;;;9.39;54.86;97855.90;108245;1254;68907;-66
2024/02/05 08:46:34;;;;;;;5.40;2.90;;;;;;;9.49;54.75;97843.19;108153;1254;72857;-66
2024/02/05 08:49:02;;;;;;;7.20;2.70;;;;;;;9.44;54.94;97845.41;108207;1254;63112;-67
2024/02/05 08:51:31;;;;;;;5.20;2.70;;;;;;;9.58;54.60;97855.46;108195;1253;60446;-66
2024/02/05 08:53:58;;;;;;;4.80;2.90;;;;;;;9.64;54.67;97846.30;108184;1253;76101;-66
2024/02/05 08:56:26;;;;;;;6.90;3.50;;;;;;;9.70;54.41;97850.45;108247;1254;68419;-66
2024/02/05 08:58:53;;;;;;;8.30;4.10;;;;;;;9.88;54.00;97843.92;108216;1253;73064;-66
2024/02/05 09:01:21;;;;;;;6.80;3.50;;;;;;;9.74;54.44;97839.98;108170;1254;60341;-66
2024/02/05 09:03:49;;;;;;;7.10;3.80;;;;;;;10.02;53.98;97829.60;108222;1254;62245;-66
2024/02/05 09:06:16;;;;;;;8.90;4.50;;;;;;;10.07;54.12;97828.56;108153;1254;74007;-67
2024/02/05 09:08:44;;;;;;;7.30;4.20;;;;;;;10.02;54.32;97829.25;108349;1253;70481;-67
2024/02/05 09:11:12;;;;;;;6.90;3.70;;;;;;;10.10;54.19;97826.23;108114;1254;71491;-67
2024/02/05 09:13:41;;;;;;;8.20;3.80;;;;;;;10.18;54.13;97823.09;108197;1252;63459;-67
2024/02/05 09:16:09;;;;;;;6.90;3.90;;;;;;;10.45;53.98;97823.27;108138;1254;62246;-67
2024/02/05 09:18:37;;;;;;;7.90;4.40;;;;;;;10.73;53.57;97832.19;108022;1254;73783;-65
2024/02/05 09:21:05;;;;;;;10.10;4.50;;;;;;;10.72;53.39;97833.70;108081;1253;70588;-66
2024/02/05 09:23:34;;;;;;;9.00;4.50;;;;;;;10.89;52.62;97834.20;108054;1254;71528;-67
2024/02/05 09:26:02;;;;;;;9.50;3.90;;;;;;;10.94;52.44;97829.45;108220;1253;61205;-67
2024/02/05 09:28:30;;;;;;;8.20;4.50;;;;;;;11.00;51.99;97826.67;108225;1253;59582;-67
2024/02/05 09:30:58;;;;;;;6.20;3.90;;;;;;;10.90;51.94;97824.25;108175;1253;73966;-65
2024/02/05 09:33:38;;;;;;;5.20;3.60;;;;;;;10.89;51.77;97819.23;108184;1254;69890;-66
2024/02/05 09:36:07;;;;;;;7.40;3.60;;;;;;;10.94;51.68;97813.79;108205;1254;73503;-67
2024/02/05 09:38:34;;;;;;;6.80;4.20;;;;;;;10.82;51.96;97822.04;108120;1254;60532;-66
2024/02/05 09:41:05;;;;;;;6.70;3.90;;;;;;;10.51;52.40;97815.58;108108;1254;60376;-67
2024/02/05 09:43:34;;;;;;;7.10;4.70;;;;;;;10.66;52.08;97831.89;108183;1252;73996;-66
2024/02/05 09:46:05;;;;;;;6.90;4.00;;;;;;;10.70;51.97;97826.86;108215;1253;72229;-66
2024/02/05 09:48:34;;;;;;;7.30;4.50;;;;;;;10.60;52.18;97832.63;108068;1254;72182;-66
2024/02/05 09:51:12;;;;;;;8.20;4.70;;;;;;;10.36;52.58;97824.94;108198;1253;61134;-67
2024/02/05 09:53:39;;;;;;;;;;;;;;;10.56;52.36;97819.91;108229;1253;61091;-67
2024/02/05 09:56:07;;;;;;;9.40;5.50;;;;;;;10.61;52.21;97818.04;108264;1256;73935;-66
2024/02/05 09:58:35;;;;;;;8.40;4.70;;;;;;;10.39;52.59;97812.29;108238;1254;70906;-67
2024/02/05 10:01:02;;;;;;;7.70;4.90;;;;;;;10.41;52.86;97805.27;108212;1254;72711;-66
2024/02/05 10:03:31;;;;;;;8.00;4.70;;;;;;;10.45;52.95;97798.70;108199;1253;60960;-67
2024/02/05 10:06:03;;;;;;;8.60;4.80;;;;;;;10.31;53.44;97800.91;108070;1256;62096;-67
2024/02/05 10:08:32;;;;;;;5.90;4.10;;;;;;;10.12;53.98;97790.17;108107;1254;72711;-66
2024/02/05 10:11:00;;;;;;;6.80;4.70;;;;;;;10.45;53.38;97779.01;107889;1253;70258;-66
2024/02/05 10:13:29;;;;;;;7.80;4.60;;;;;;;10.49;53.27;97775.58;108020;1254;72511;-67
2024/02/05 10:15:57;;;;;;;6.70;4.60;;;;;;;10.67;52.92;97779.14;108146;1252;61000;-67
2024/02/05 10:18:24;;;;;;;8.30;4.40;;;;;;;10.65;52.88;97775.23;108189;1255;60316;-65
2024/02/05 10:20:52;;;;;;;9.80;4.00;;;;;;;10.47;53.11;97781.48;108163;1252;71714;-67
2024/02/05 10:23:19;;;;;;;6.10;3.80;;;;;;;10.53;53.01;97776.52;108016;1253;68532;-67
2024/02/05 10:25:49;;;;;;;4.80;3.40;;;;;;;10.46;53.27;97766.33;108141;1252;71740;-67
2024/02/05 10:28:20;;;;;;;5.80;3.70;;;;;;;10.48;53.17;97765.15;108001;1254;61676;-66
2024/02/05 10:30:48;;;;;;;6.00;3.60;;;;;;;10.43;53.25;97765.48;108090;1257;62391;-67
2024/02/05 10:33:15;;;;;;;5.10;3.20;;;;;;;10.49;52.75;97758.04;108053;1254;76072;-67
2024/02/05 10:35:43;;;;;;;8.80;4.10;;;;;;;10.49;52.43;97748.72;108035;1253;71261;-67
2024/02/05 10:38:11;;;;;;;8.30;4.30;;;;;;;10.53;52.54;97746.52;108044;1254;72293;-66
2024/02/05 10:40:38;;;;;;;6.70;3.60;;;;;;;10.47;52.72;97744.48;108037;1253;63036;-67
2024/02/05 10:43:08;;;;;;;11.40;4.50;;;;;;;10.62;52.51;97736.14;108071;1253;61425;-67
2024/02/05 10:45:39;;;;;;;;;;;;;;;10.58;52.82;97757.48;108085;1258;76412;-66
2024/02/05 10:48:07;;;;;;;9.80;4.30;;;;;;;10.45;52.77;97746.02;108060;1253;68916;-66
2024/02/05 10:50:35;;;;;;;8.10;3.60;;;;;;;10.37;52.68;97735.40;108128;1256;72951;-66
2024/02/05 10:53:03;;;;;;;6.20;3.30;;;;;;;10.61;52.26;97734.31;108015;1254;60590;-67
2024/02/05 10:55:31;;;;;;;10.20;3.60;;;;;;;10.64;52.16;97713.04;108111;1254;60331;-66
2024/02/05 10:58:00;;;;;;;5.40;3.40;;;;;;;10.64;51.98;97696.53;108244;1254;75091;-67
2024/02/05 11:00:27;;;;;;;7.20;3.50;;;;;;;10.62;52.09;97685.80;108130;1253;71027;-67
2024/02/05 11:03:17;;;;;;;5.80;2.80;;;;;;;10.62;52.00;97690.34;108078;1254;72239;-67
2024/02/05 11:05:51;;;;;;;5.10;2.90;;;;;;;10.49;52.27;97695.05;108130;1252;61410;-67
2024/02/05 11:08:23;;;;;;;5.30;3.10;;;;;;;10.43;52.36;97700.89;108284;1252;61564;-65
2024/02/05 11:10:55;;;;;;;6.10;3.40;;;;;;;10.43;52.49;97697.23;108177;1254;74246;-66
2024/02/05 11:13:24;;;;;;;5.60;3.40;;;;;;;10.52;52.77;97692.05;108100;1253;71001;-66
2024/02/05 11:15:52;;;;;;;5.40;3.30;;;;;;;10.52;52.97;97690.05;108212;1253;71260;-67
2024/02/05 11:18:23;;;;;;;7.70;3.30;;;;;;;10.58;52.52;97690.52;108081;1253;60203;-66
2024/02/05 11:20:51;;;;;;;7.00;3.50;;;;;;;10.56;52.45;97696.25;108225;1254;60274;-67
2024/02/05 11:23:19;;;;;;;6.00;4.10;;;;;;;10.68;52.23;97703.76;108071;1254;73973;-66
2024/02/05 11:25:47;;;;;;;5.00;3.40;;;;;;;10.65;52.36;97702.98;108070;1254;70491;-66
2024/02/05 11:28:14;;;;;;;7.60;4.10;;;;;;;10.74;52.04;97693.83;108098;1253;73770;-66
2024/02/05 11:30:43;;;;;;;7.80;3.80;;;;;;;10.82;51.79;97683.60;108127;1254;60752;-65
2024/02/05 11:33:12;;;;;;;7.40;4.10;;;;;;;10.39;52.49;97677.55;108167;1253;60570;-67